sensor_id;sensor_type;location;lat;lon;timestamp;P1;P2;P0
47079;PMS5003;33067;49.296;14.470;2022-10-26T00:03:21;47;46;
47079;PMS5003;33067;49.296;14.470;2022-10-26T00:05:46;34;33;
47079;PMS5003;33067;49.296;14.470;2022-10-26T00:08:12;30;25;
47079;PMS5003;33067;49.296;14.470;2022-10-26T00:10:37;34;31;
47079;PMS5003;33067;49.296;14.470;2022-10-26T00:13:02;24;23;
47079;PMS5003;33067;49.296;14.470;2022-10-26T00:15:27;28;25;
47079;PMS5003;33067;49.296;14.470;2022-10-26T00:17:53;54;49;
47079;PMS5003;33067;49.296;14.470;2022-10-26T00:20:18;33;32;
47079;PMS5003;33067;49.296;14.470;2022-10-26T00:22:44;27;27;
47079;PMS5003;33067;49.296;14.470;2022-10-26T00:25:10;47;46;
47079;PMS5003;33067;49.296;14.470;2022-10-26T00:27:35;31;27;
47079;PMS5003;33067;49.296;14.470;2022-10-26T00:30:00;37;36;
47079;PMS5003;33067;49.296;14.470;2022-10-26T00:32:26;34;29;
47079;PMS5003;33067;49.296;14.470;2022-10-26T00:34:51;25;21;
47079;PMS5003;33067;49.296;14.470;2022-10-26T00:37:16;31;30;
47079;PMS5003;33067;49.296;14.470;2022-10-26T00:39:42;28;28;
47079;PMS5003;33067;49.296;14.470;2022-10-26T00:42:09;47;47;
47079;PMS5003;33067;49.296;14.470;2022-10-26T00:46:59;22;22;
47079;PMS5003;33067;49.296;14.470;2022-10-26T00:49:24;27;23;
47079;PMS5003;33067;49.296;14.470;2022-10-26T00:51:51;25;24;
47079;PMS5003;33067;49.296;14.470;2022-10-26T00:54:16;29;22;
47079;PMS5003;33067;49.296;14.470;2022-10-26T00:56:41;22;21;
47079;PMS5003;33067;49.296;14.470;2022-10-26T00:59:08;23;20;
47079;PMS5003;33067;49.296;14.470;2022-10-26T01:01:32;29;27;
47079;PMS5003;33067;49.296;14.470;2022-10-26T01:03:58;26;22;
47079;PMS5003;33067;49.296;14.470;2022-10-26T01:06:24;29;27;
47079;PMS5003;33067;49.296;14.470;2022-10-26T01:08:49;30;27;
47079;PMS5003;33067;49.296;14.470;2022-10-26T01:11:14;23;21;
47079;PMS5003;33067;49.296;14.470;2022-10-26T01:13:40;19;19;
47079;PMS5003;33067;49.296;14.470;2022-10-26T01:16:10;18;18;
47079;PMS5003;33067;49.296;14.470;2022-10-26T01:18:34;29;27;
47079;PMS5003;33067;49.296;14.470;2022-10-26T01:21:01;23;22;
47079;PMS5003;33067;49.296;14.470;2022-10-26T01:23:23;26;22;
47079;PMS5003;33067;49.296;14.470;2022-10-26T01:25:52;23;21;
47079;PMS5003;33067;49.296;14.470;2022-10-26T01:28:16;24;24;
47079;PMS5003;33067;49.296;14.470;2022-10-26T01:30:38;22;21;
47079;PMS5003;33067;49.296;14.470;2022-10-26T01:33:10;23;21;
47079;PMS5003;33067;49.296;14.470;2022-10-26T01:35:29;27;25;
47079;PMS5003;33067;49.296;14.470;2022-10-26T01:37:55;25;21;
47079;PMS5003;33067;49.296;14.470;2022-10-26T01:40:20;29;22;
47079;PMS5003;33067;49.296;14.470;2022-10-26T01:42:46;29;25;
47079;PMS5003;33067;49.296;14.470;2022-10-26T01:45:10;25;23;
47079;PMS5003;33067;49.296;14.470;2022-10-26T01:47:35;23;20;
47079;PMS5003;33067;49.296;14.470;2022-10-26T01:50:00;19;18;
47079;PMS5003;33067;49.296;14.470;2022-10-26T01:52:25;21;19;
47079;PMS5003;33067;49.296;14.470;2022-10-26T01:57:16;14;14;
47079;PMS5003;33067;49.296;14.470;2022-10-26T02:02:15;16;16;
47079;PMS5003;33067;49.296;14.470;2022-10-26T02:04:34;18;18;
47079;PMS5003;33067;49.296;14.470;2022-10-26T02:07:00;15;14;
47079;PMS5003;33067;49.296;14.470;2022-10-26T02:09:25;16;13;
47079;PMS5003;33067;49.296;14.470;2022-10-26T02:13:00;20;17;
47079;PMS5003;33067;49.296;14.470;2022-10-26T02:15:26;20;19;
47079;PMS5003;33067;49.296;14.470;2022-10-26T02:17:52;20;20;
47079;PMS5003;33067;49.296;14.470;2022-10-26T02:20:17;19;18;
47079;PMS5003;33067;49.296;14.470;2022-10-26T02:22:43;18;16;
47079;PMS5003;33067;49.296;14.470;2022-10-26T02:25:08;18;18;
47079;PMS5003;33067;49.296;14.470;2022-10-26T02:27:33;20;14;
47079;PMS5003;33067;49.296;14.470;2022-10-26T02:29:57;26;24;
47079;PMS5003;33067;49.296;14.470;2022-10-26T02:32:23;22;19;
47079;PMS5003;33067;49.296;14.470;2022-10-26T02:34:48;29;26;
47079;PMS5003;33067;49.296;14.470;2022-10-26T02:37:14;28;25;
47079;PMS5003;33067;49.296;14.470;2022-10-26T02:39:39;29;27;
47079;PMS5003;33067;49.296;14.470;2022-10-26T02:42:04;32;24;
47079;PMS5003;33067;49.296;14.470;2022-10-26T02:44:31;24;24;
47079;PMS5003;33067;49.296;14.470;2022-10-26T02:46:56;19;19;
47079;PMS5003;33067;49.296;14.470;2022-10-26T02:49:21;26;25;
47079;PMS5003;33067;49.296;14.470;2022-10-26T02:51:48;19;17;
47079;PMS5003;33067;49.296;14.470;2022-10-26T02:54:13;22;22;
47079;PMS5003;33067;49.296;14.470;2022-10-26T02:56:39;18;16;
47079;PMS5003;33067;49.296;14.470;2022-10-26T02:59:04;17;16;
47079;PMS5003;33067;49.296;14.470;2022-10-26T03:01:28;15;13;
47079;PMS5003;33067;49.296;14.470;2022-10-26T03:03:55;19;18;
47079;PMS5003;33067;49.296;14.470;2022-10-26T03:06:20;17;14;
47079;PMS5003;33067;49.296;14.470;2022-10-26T03:08:45;24;21;
47079;PMS5003;33067;49.296;14.470;2022-10-26T03:11:10;17;16;
47079;PMS5003;33067;49.296;14.470;2022-10-26T03:13:36;18;18;
47079;PMS5003;33067;49.296;14.470;2022-10-26T03:16:01;16;16;
47079;PMS5003;33067;49.296;14.470;2022-10-26T03:18:27;12;11;
47079;PMS5003;33067;49.296;14.470;2022-10-26T03:20:52;19;17;
47079;PMS5003;33067;49.296;14.470;2022-10-26T03:23:17;17;17;
47079;PMS5003;33067;49.296;14.470;2022-10-26T03:25:43;17;15;
47079;PMS5003;33067;49.296;14.470;2022-10-26T03:28:08;21;18;
47079;PMS5003;33067;49.296;14.470;2022-10-26T03:30:33;22;19;
47079;PMS5003;33067;49.296;14.470;2022-10-26T03:32:59;24;20;
47079;PMS5003;33067;49.296;14.470;2022-10-26T03:35:24;26;22;
47079;PMS5003;33067;49.296;14.470;2022-10-26T03:37:49;24;24;
47079;PMS5003;33067;49.296;14.470;2022-10-26T03:40:15;17;17;
47079;PMS5003;33067;49.296;14.470;2022-10-26T03:42:40;14;14;
47079;PMS5003;33067;49.296;14.470;2022-10-26T03:45:06;19;14;
47079;PMS5003;33067;49.296;14.470;2022-10-26T03:47:31;24;20;
47079;PMS5003;33067;49.296;14.470;2022-10-26T03:49:56;13;13;
47079;PMS5003;33067;49.296;14.470;2022-10-26T03:52:22;16;16;
47079;PMS5003;33067;49.296;14.470;2022-10-26T03:54:47;20;18;
47079;PMS5003;33067;49.296;14.470;2022-10-26T03:57:12;17;16;
47079;PMS5003;33067;49.296;14.470;2022-10-26T03:59:37;19;17;
47079;PMS5003;33067;49.296;14.470;2022-10-26T04:02:03;19;18;
47079;PMS5003;33067;49.296;14.470;2022-10-26T04:04:29;22;19;
47079;PMS5003;33067;49.296;14.470;2022-10-26T04:06:54;16;16;
47079;PMS5003;33067;49.296;14.470;2022-10-26T04:09:19;19;18;
47079;PMS5003;33067;49.296;14.470;2022-10-26T04:11:45;21;18;
47079;PMS5003;33067;49.296;14.470;2022-10-26T04:14:10;24;20;
47079;PMS5003;33067;49.296;14.470;2022-10-26T04:16:35;26;21;
47079;PMS5003;33067;49.296;14.470;2022-10-26T04:19:01;19;17;
47079;PMS5003;33067;49.296;14.470;2022-10-26T04:21:27;19;18;
47079;PMS5003;33067;49.296;14.470;2022-10-26T04:23:53;18;16;
47079;PMS5003;33067;49.296;14.470;2022-10-26T04:26:18;18;17;
47079;PMS5003;33067;49.296;14.470;2022-10-26T04:28:43;21;18;
47079;PMS5003;33067;49.296;14.470;2022-10-26T04:31:09;24;22;
47079;PMS5003;33067;49.296;14.470;2022-10-26T04:33:34;20;19;
47079;PMS5003;33067;49.296;14.470;2022-10-26T04:35:59;27;25;
47079;PMS5003;33067;49.296;14.470;2022-10-26T04:38:24;21;19;
47079;PMS5003;33067;49.296;14.470;2022-10-26T04:40:50;23;15;
47079;PMS5003;33067;49.296;14.470;2022-10-26T04:43:16;25;25;
47079;PMS5003;33067;49.296;14.470;2022-10-26T04:45:42;25;25;
47079;PMS5003;33067;49.296;14.470;2022-10-26T04:48:08;14;13;
47079;PMS5003;33067;49.296;14.470;2022-10-26T04:50:32;18;18;
47079;PMS5003;33067;49.296;14.470;2022-10-26T04:52:57;20;19;
47079;PMS5003;33067;49.296;14.470;2022-10-26T04:55:23;23;23;
47079;PMS5003;33067;49.296;14.470;2022-10-26T04:57:48;16;13;
47079;PMS5003;33067;49.296;14.470;2022-10-26T05:00:13;22;19;
47079;PMS5003;33067;49.296;14.470;2022-10-26T05:02:39;26;17;
47079;PMS5003;33067;49.296;14.470;2022-10-26T05:05:04;19;18;
47079;PMS5003;33067;49.296;14.470;2022-10-26T05:07:30;22;19;
47079;PMS5003;33067;49.296;14.470;2022-10-26T05:09:55;17;17;
47079;PMS5003;33067;49.296;14.470;2022-10-26T05:12:20;18;16;
47079;PMS5003;33067;49.296;14.470;2022-10-26T05:14:46;18;17;
47079;PMS5003;33067;49.296;14.470;2022-10-26T05:17:12;24;23;
47079;PMS5003;33067;49.296;14.470;2022-10-26T05:19:37;17;16;
47079;PMS5003;33067;49.296;14.470;2022-10-26T05:22:02;17;17;
47079;PMS5003;33067;49.296;14.470;2022-10-26T05:24:27;26;24;
47079;PMS5003;33067;49.296;14.470;2022-10-26T05:26:52;34;33;
47079;PMS5003;33067;49.296;14.470;2022-10-26T05:29:17;40;39;
47079;PMS5003;33067;49.296;14.470;2022-10-26T05:31:42;42;39;
47079;PMS5003;33067;49.296;14.470;2022-10-26T05:34:07;44;43;
47079;PMS5003;33067;49.296;14.470;2022-10-26T05:36:33;39;35;
47079;PMS5003;33067;49.296;14.470;2022-10-26T05:38:59;29;28;
47079;PMS5003;33067;49.296;14.470;2022-10-26T05:41:24;32;31;
47079;PMS5003;33067;49.296;14.470;2022-10-26T05:43:50;34;30;
47079;PMS5003;33067;49.296;14.470;2022-10-26T05:46:15;37;32;
47079;PMS5003;33067;49.296;14.470;2022-10-26T05:48:41;50;45;
47079;PMS5003;33067;49.296;14.470;2022-10-26T05:51:06;92;77;
47079;PMS5003;33067;49.296;14.470;2022-10-26T05:53:32;54;47;
47079;PMS5003;33067;49.296;14.470;2022-10-26T05:55:57;47;42;
47079;PMS5003;33067;49.296;14.470;2022-10-26T05:58:23;34;31;
47079;PMS5003;33067;49.296;14.470;2022-10-26T06:00:52;33;33;
47079;PMS5003;33067;49.296;14.470;2022-10-26T06:03:17;42;36;
47079;PMS5003;33067;49.296;14.470;2022-10-26T06:05:41;39;36;
47079;PMS5003;33067;49.296;14.470;2022-10-26T06:08:07;45;39;
47079;PMS5003;33067;49.296;14.470;2022-10-26T06:10:30;27;25;
47079;PMS5003;33067;49.296;14.470;2022-10-26T06:12:56;21;21;
47079;PMS5003;33067;49.296;14.470;2022-10-26T06:15:21;22;21;
47079;PMS5003;33067;49.296;14.470;2022-10-26T06:17:48;24;23;
47079;PMS5003;33067;49.296;14.470;2022-10-26T06:20:16;19;19;
47079;PMS5003;33067;49.296;14.470;2022-10-26T06:22:41;19;19;
47079;PMS5003;33067;49.296;14.470;2022-10-26T06:25:05;17;16;
47079;PMS5003;33067;49.296;14.470;2022-10-26T06:27:30;20;18;
47079;PMS5003;33067;49.296;14.470;2022-10-26T06:29:54;19;19;
47079;PMS5003;33067;49.296;14.470;2022-10-26T06:32:18;28;28;
47079;PMS5003;33067;49.296;14.470;2022-10-26T06:34:45;31;28;
47079;PMS5003;33067;49.296;14.470;2022-10-26T06:37:10;27;26;
47079;PMS5003;33067;49.296;14.470;2022-10-26T06:39:36;19;18;
47079;PMS5003;33067;49.296;14.470;2022-10-26T06:42:01;21;20;
47079;PMS5003;33067;49.296;14.470;2022-10-26T06:44:26;18;17;
47079;PMS5003;33067;49.296;14.470;2022-10-26T06:46:53;22;19;
47079;PMS5003;33067;49.296;14.470;2022-10-26T06:49:17;18;18;
47079;PMS5003;33067;49.296;14.470;2022-10-26T06:51:48;33;30;
47079;PMS5003;33067;49.296;14.470;2022-10-26T06:54:10;30;28;
47079;PMS5003;33067;49.296;14.470;2022-10-26T06:56:33;27;26;
47079;PMS5003;33067;49.296;14.470;2022-10-26T06:58:59;18;18;
47079;PMS5003;33067;49.296;14.470;2022-10-26T07:01:24;19;19;
47079;PMS5003;33067;49.296;14.470;2022-10-26T07:03:50;20;20;
47079;PMS5003;33067;49.296;14.470;2022-10-26T07:06:16;28;24;
47079;PMS5003;33067;49.296;14.470;2022-10-26T07:08:41;34;32;
47079;PMS5003;33067;49.296;14.470;2022-10-26T07:11:06;31;25;
47079;PMS5003;33067;49.296;14.470;2022-10-26T07:13:32;32;30;
47079;PMS5003;33067;49.296;14.470;2022-10-26T07:15:58;33;32;
47079;PMS5003;33067;49.296;14.470;2022-10-26T07:18:23;26;26;
47079;PMS5003;33067;49.296;14.470;2022-10-26T07:20:48;22;21;
47079;PMS5003;33067;49.296;14.470;2022-10-26T07:23:14;24;21;
47079;PMS5003;33067;49.296;14.470;2022-10-26T07:25:39;23;19;
47079;PMS5003;33067;49.296;14.470;2022-10-26T07:28:05;21;20;
47079;PMS5003;33067;49.296;14.470;2022-10-26T07:30:30;23;22;
47079;PMS5003;33067;49.296;14.470;2022-10-26T07:32:59;27;24;
47079;PMS5003;33067;49.296;14.470;2022-10-26T07:35:20;24;22;
47079;PMS5003;33067;49.296;14.470;2022-10-26T07:37:45;29;27;
47079;PMS5003;33067;49.296;14.470;2022-10-26T07:40:10;31;28;
47079;PMS5003;33067;49.296;14.470;2022-10-26T07:42:35;25;25;
47079;PMS5003;33067;49.296;14.470;2022-10-26T07:45:01;24;24;
47079;PMS5003;33067;49.296;14.470;2022-10-26T07:47:26;32;30;
47079;PMS5003;33067;49.296;14.470;2022-10-26T07:49:51;31;30;
47079;PMS5003;33067;49.296;14.470;2022-10-26T07:52:17;33;30;
47079;PMS5003;33067;49.296;14.470;2022-10-26T07:54:42;33;32;
47079;PMS5003;33067;49.296;14.470;2022-10-26T07:57:07;75;73;
47079;PMS5003;33067;49.296;14.470;2022-10-26T07:59:33;55;53;
47079;PMS5003;33067;49.296;14.470;2022-10-26T08:01:58;64;61;
47079;PMS5003;33067;49.296;14.470;2022-10-26T08:04:23;88;78;
47079;PMS5003;33067;49.296;14.470;2022-10-26T08:06:49;116;96;
47079;PMS5003;33067;49.296;14.470;2022-10-26T08:09:14;66;57;
47079;PMS5003;33067;49.296;14.470;2022-10-26T08:11:40;70;58;
47079;PMS5003;33067;49.296;14.470;2022-10-26T08:14:05;37;36;
47079;PMS5003;33067;49.296;14.470;2022-10-26T08:16:31;33;30;
47079;PMS5003;33067;49.296;14.470;2022-10-26T08:18:56;40;38;
47079;PMS5003;33067;49.296;14.470;2022-10-26T08:21:22;35;35;
47079;PMS5003;33067;49.296;14.470;2022-10-26T08:23:48;47;42;
47079;PMS5003;33067;49.296;14.470;2022-10-26T08:26:13;36;36;
47079;PMS5003;33067;49.296;14.470;2022-10-26T08:28:39;37;36;
47079;PMS5003;33067;49.296;14.470;2022-10-26T08:31:05;38;37;
47079;PMS5003;33067;49.296;14.470;2022-10-26T08:33:29;42;37;
47079;PMS5003;33067;49.296;14.470;2022-10-26T08:35:56;26;26;
47079;PMS5003;33067;49.296;14.470;2022-10-26T08:38:20;24;24;
47079;PMS5003;33067;49.296;14.470;2022-10-26T08:40:45;20;20;
47079;PMS5003;33067;49.296;14.470;2022-10-26T08:43:12;34;32;
47079;PMS5003;33067;49.296;14.470;2022-10-26T08:45:37;43;43;
47079;PMS5003;33067;49.296;14.470;2022-10-26T08:48:01;33;33;
47079;PMS5003;33067;49.296;14.470;2022-10-26T08:50:29;34;30;
47079;PMS5003;33067;49.296;14.470;2022-10-26T08:52:52;31;28;
47079;PMS5003;33067;49.296;14.470;2022-10-26T08:55:18;35;30;
47079;PMS5003;33067;49.296;14.470;2022-10-26T08:57:43;32;32;
47079;PMS5003;33067;49.296;14.470;2022-10-26T09:00:10;34;33;
47079;PMS5003;33067;49.296;14.470;2022-10-26T09:02:35;47;40;
47079;PMS5003;33067;49.296;14.470;2022-10-26T09:05:00;47;45;
47079;PMS5003;33067;49.296;14.470;2022-10-26T09:07:30;52;47;
47079;PMS5003;33067;49.296;14.470;2022-10-26T09:09:52;48;41;
47079;PMS5003;33067;49.296;14.470;2022-10-26T09:12:18;54;51;
47079;PMS5003;33067;49.296;14.470;2022-10-26T09:14:45;58;56;
47079;PMS5003;33067;49.296;14.470;2022-10-26T09:17:09;66;61;
47079;PMS5003;33067;49.296;14.470;2022-10-26T09:19:36;58;54;
47079;PMS5003;33067;49.296;14.470;2022-10-26T09:21:59;40;38;
47079;PMS5003;33067;49.296;14.470;2022-10-26T09:24:25;29;26;
47079;PMS5003;33067;49.296;14.470;2022-10-26T09:26:52;32;30;
47079;PMS5003;33067;49.296;14.470;2022-10-26T09:29:14;38;35;
47079;PMS5003;33067;49.296;14.470;2022-10-26T09:31:40;46;42;
47079;PMS5003;33067;49.296;14.470;2022-10-26T09:34:06;51;48;
47079;PMS5003;33067;49.296;14.470;2022-10-26T09:36:31;52;50;
47079;PMS5003;33067;49.296;14.470;2022-10-26T09:38:57;61;57;
47079;PMS5003;33067;49.296;14.470;2022-10-26T09:41:24;67;63;
47079;PMS5003;33067;49.296;14.470;2022-10-26T09:43:49;60;58;
47079;PMS5003;33067;49.296;14.470;2022-10-26T09:46:15;55;53;
47079;PMS5003;33067;49.296;14.470;2022-10-26T09:48:40;56;51;
47079;PMS5003;33067;49.296;14.470;2022-10-26T09:51:04;52;50;
47079;PMS5003;33067;49.296;14.470;2022-10-26T09:53:30;46;43;
47079;PMS5003;33067;49.296;14.470;2022-10-26T09:56:00;46;42;
47079;PMS5003;33067;49.296;14.470;2022-10-26T09:58:22;48;45;
47079;PMS5003;33067;49.296;14.470;2022-10-26T10:00:47;51;49;
47079;PMS5003;33067;49.296;14.470;2022-10-26T10:03:17;46;43;
47079;PMS5003;33067;49.296;14.470;2022-10-26T10:05:37;47;38;
47079;PMS5003;33067;49.296;14.470;2022-10-26T10:08:13;50;45;
47079;PMS5003;33067;49.296;14.470;2022-10-26T10:10:29;38;38;
47079;PMS5003;33067;49.296;14.470;2022-10-26T10:12:54;44;44;
47079;PMS5003;33067;49.296;14.470;2022-10-26T10:15:20;43;41;
47079;PMS5003;33067;49.296;14.470;2022-10-26T10:17:53;34;32;
47079;PMS5003;33067;49.296;14.470;2022-10-26T10:20:15;54;50;
47079;PMS5003;33067;49.296;14.470;2022-10-26T10:22:37;35;35;
47079;PMS5003;33067;49.296;14.470;2022-10-26T10:25:03;29;29;
47079;PMS5003;33067;49.296;14.470;2022-10-26T10:27:29;28;26;
47079;PMS5003;33067;49.296;14.470;2022-10-26T10:29:53;24;23;
47079;PMS5003;33067;49.296;14.470;2022-10-26T10:32:19;22;18;
47079;PMS5003;33067;49.296;14.470;2022-10-26T10:34:45;24;23;
47079;PMS5003;33067;49.296;14.470;2022-10-26T10:37:14;28;28;
47079;PMS5003;33067;49.296;14.470;2022-10-26T10:39:36;23;21;
47079;PMS5003;33067;49.296;14.470;2022-10-26T10:42:00;28;26;
47079;PMS5003;33067;49.296;14.470;2022-10-26T10:44:26;24;24;
47079;PMS5003;33067;49.296;14.470;2022-10-26T10:49:18;23;22;
47079;PMS5003;33067;49.296;14.470;2022-10-26T10:51:43;20;20;
47079;PMS5003;33067;49.296;14.470;2022-10-26T10:56:37;17;15;
47079;PMS5003;33067;49.296;14.470;2022-10-26T10:59:12;21;19;
47079;PMS5003;33067;49.296;14.470;2022-10-26T11:01:26;14;14;
47079;PMS5003;33067;49.296;14.470;2022-10-26T11:03:56;23;20;
47079;PMS5003;33067;49.296;14.470;2022-10-26T11:06:17;14;13;
47079;PMS5003;33067;49.296;14.470;2022-10-26T11:08:44;18;18;
47079;PMS5003;33067;49.296;14.470;2022-10-26T11:11:08;21;14;
47079;PMS5003;33067;49.296;14.470;2022-10-26T11:13:34;20;16;
47079;PMS5003;33067;49.296;14.470;2022-10-26T11:16:00;14;14;
47079;PMS5003;33067;49.296;14.470;2022-10-26T11:18:29;15;15;
47079;PMS5003;33067;49.296;14.470;2022-10-26T11:20:50;18;14;
47079;PMS5003;33067;49.296;14.470;2022-10-26T11:23:16;21;20;
47079;PMS5003;33067;49.296;14.470;2022-10-26T11:25:41;19;19;
47079;PMS5003;33067;49.296;14.470;2022-10-26T11:28:10;21;18;
47079;PMS5003;33067;49.296;14.470;2022-10-26T11:30:32;17;15;
47079;PMS5003;33067;49.296;14.470;2022-10-26T11:32:59;13;12;
47079;PMS5003;33067;49.296;14.470;2022-10-26T11:35:23;11;11;
47079;PMS5003;33067;49.296;14.470;2022-10-26T11:37:50;11;11;
47079;PMS5003;33067;49.296;14.470;2022-10-26T11:40:15;11;10;
47079;PMS5003;33067;49.296;14.470;2022-10-26T11:42:39;11;10;
47079;PMS5003;33067;49.296;14.470;2022-10-26T11:45:07;11;11;
47079;PMS5003;33067;49.296;14.470;2022-10-26T11:47:31;16;14;
47079;PMS5003;33067;49.296;14.470;2022-10-26T11:49:56;12;12;
47079;PMS5003;33067;49.296;14.470;2022-10-26T11:52:21;12;10;
47079;PMS5003;33067;49.296;14.470;2022-10-26T11:54:45;12;11;
47079;PMS5003;33067;49.296;14.470;2022-10-26T11:57:10;10;10;
47079;PMS5003;33067;49.296;14.470;2022-10-26T11:59:36;12;11;
47079;PMS5003;33067;49.296;14.470;2022-10-26T12:02:01;8;8;
47079;PMS5003;33067;49.296;14.470;2022-10-26T12:04:27;10;10;
47079;PMS5003;33067;49.296;14.470;2022-10-26T12:06:50;11;11;
47079;PMS5003;33067;49.296;14.470;2022-10-26T12:09:16;13;12;
47079;PMS5003;33067;49.296;14.470;2022-10-26T12:11:42;12;12;
47079;PMS5003;33067;49.296;14.470;2022-10-26T12:14:10;11;11;
47079;PMS5003;33067;49.296;14.470;2022-10-26T12:16:41;10;10;
47079;PMS5003;33067;49.296;14.470;2022-10-26T12:18:57;11;11;
47079;PMS5003;33067;49.296;14.470;2022-10-26T12:21:23;16;13;
47079;PMS5003;33067;49.296;14.470;2022-10-26T12:23:52;13;13;
47079;PMS5003;33067;49.296;14.470;2022-10-26T12:28:38;15;13;
47079;PMS5003;33067;49.296;14.470;2022-10-26T12:33:29;16;16;
47079;PMS5003;33067;49.296;14.470;2022-10-26T12:35:54;14;14;
47079;PMS5003;33067;49.296;14.470;2022-10-26T12:38:35;11;11;
47079;PMS5003;33067;49.296;14.470;2022-10-26T12:40:45;13;12;
47079;PMS5003;33067;49.296;14.470;2022-10-26T12:45:36;15;13;
47079;PMS5003;33067;49.296;14.470;2022-10-26T12:48:02;12;12;
47079;PMS5003;33067;49.296;14.470;2022-10-26T12:50:26;13;12;
47079;PMS5003;33067;49.296;14.470;2022-10-26T12:52:51;17;17;
47079;PMS5003;33067;49.296;14.470;2022-10-26T12:55:26;17;17;
47079;PMS5003;33067;49.296;14.470;2022-10-26T12:57:44;15;15;
47079;PMS5003;33067;49.296;14.470;2022-10-26T13:00:10;12;10;
47079;PMS5003;33067;49.296;14.470;2022-10-26T13:02:36;12;10;
47079;PMS5003;33067;49.296;14.470;2022-10-26T13:05:03;10;10;
47079;PMS5003;33067;49.296;14.470;2022-10-26T13:07:24;12;12;
47079;PMS5003;33067;49.296;14.470;2022-10-26T13:09:53;12;12;
47079;PMS5003;33067;49.296;14.470;2022-10-26T13:12:14;11;11;
47079;PMS5003;33067;49.296;14.470;2022-10-26T13:14:40;13;13;
47079;PMS5003;33067;49.296;14.470;2022-10-26T13:17:04;9;9;
47079;PMS5003;33067;49.296;14.470;2022-10-26T13:19:30;12;10;
47079;PMS5003;33067;49.296;14.470;2022-10-26T13:21:54;13;10;
47079;PMS5003;33067;49.296;14.470;2022-10-26T13:24:20;10;10;
47079;PMS5003;33067;49.296;14.470;2022-10-26T13:29:10;10;10;
47079;PMS5003;33067;49.296;14.470;2022-10-26T13:34:01;12;11;
47079;PMS5003;33067;49.296;14.470;2022-10-26T13:36:26;11;11;
47079;PMS5003;33067;49.296;14.470;2022-10-26T13:38:51;13;12;
47079;PMS5003;33067;49.296;14.470;2022-10-26T13:41:20;9;9;
47079;PMS5003;33067;49.296;14.470;2022-10-26T13:43:42;12;11;
47079;PMS5003;33067;49.296;14.470;2022-10-26T13:46:12;11;11;
47079;PMS5003;33067;49.296;14.470;2022-10-26T13:48:35;15;14;
47079;PMS5003;33067;49.296;14.470;2022-10-26T13:50:59;11;10;
47079;PMS5003;33067;49.296;14.470;2022-10-26T13:53:24;14;11;
47079;PMS5003;33067;49.296;14.470;2022-10-26T13:55:49;10;10;
47079;PMS5003;33067;49.296;14.470;2022-10-26T13:58:14;12;12;
47079;PMS5003;33067;49.296;14.470;2022-10-26T14:00:38;12;12;
47079;PMS5003;33067;49.296;14.470;2022-10-26T14:03:12;11;11;
47079;PMS5003;33067;49.296;14.470;2022-10-26T14:05:29;12;10;
47079;PMS5003;33067;49.296;14.470;2022-10-26T14:07:54;13;13;
47079;PMS5003;33067;49.296;14.470;2022-10-26T14:10:22;13;13;
47079;PMS5003;33067;49.296;14.470;2022-10-26T14:12:44;16;16;
47079;PMS5003;33067;49.296;14.470;2022-10-26T14:15:11;8;8;
47079;PMS5003;33067;49.296;14.470;2022-10-26T14:17:35;12;11;
47079;PMS5003;33067;49.296;14.470;2022-10-26T14:20:00;14;12;
47079;PMS5003;33067;49.296;14.470;2022-10-26T14:22:26;12;12;
47079;PMS5003;33067;49.296;14.470;2022-10-26T14:24:52;10;10;
47079;PMS5003;33067;49.296;14.470;2022-10-26T14:27:17;13;13;
47079;PMS5003;33067;49.296;14.470;2022-10-26T14:29:41;15;15;
47079;PMS5003;33067;49.296;14.470;2022-10-26T14:34:32;24;23;
47079;PMS5003;33067;49.296;14.470;2022-10-26T14:36:59;19;17;
47079;PMS5003;33067;49.296;14.470;2022-10-26T14:39:26;12;10;
47079;PMS5003;33067;49.296;14.470;2022-10-26T14:41:48;13;13;
47079;PMS5003;33067;49.296;14.470;2022-10-26T14:44:14;18;15;
47079;PMS5003;33067;49.296;14.470;2022-10-26T14:46:38;19;16;
47079;PMS5003;33067;49.296;14.470;2022-10-26T14:49:04;34;31;
47079;PMS5003;33067;49.296;14.470;2022-10-26T14:51:41;13;12;
47079;PMS5003;33067;49.296;14.470;2022-10-26T14:54:04;12;12;
47079;PMS5003;33067;49.296;14.470;2022-10-26T14:58:57;20;20;
47079;PMS5003;33067;49.296;14.470;2022-10-26T15:03:47;24;24;
47079;PMS5003;33067;49.296;14.470;2022-10-26T15:10:52;28;27;
47079;PMS5003;33067;49.296;14.470;2022-10-26T15:13:19;33;32;
47079;PMS5003;33067;49.296;14.470;2022-10-26T15:15:49;26;23;
47079;PMS5003;33067;49.296;14.470;2022-10-26T15:20:51;18;18;
47079;PMS5003;33067;49.296;14.470;2022-10-26T15:23:16;15;14;
47079;PMS5003;33067;49.296;14.470;2022-10-26T15:25:37;20;17;
47079;PMS5003;33067;49.296;14.470;2022-10-26T15:30:18;19;17;
47079;PMS5003;33067;49.296;14.470;2022-10-26T15:32:42;23;22;
47079;PMS5003;33067;49.296;14.470;2022-10-26T15:35:12;34;33;
47079;PMS5003;33067;49.296;14.470;2022-10-26T15:37:33;32;30;
47079;PMS5003;33067;49.296;14.470;2022-10-26T15:39:59;63;56;
47079;PMS5003;33067;49.296;14.470;2022-10-26T15:42:24;44;42;
47079;PMS5003;33067;49.296;14.470;2022-10-26T15:44:50;33;33;
47079;PMS5003;33067;49.296;14.470;2022-10-26T15:47:16;68;57;
47079;PMS5003;33067;49.296;14.470;2022-10-26T15:49:40;56;52;
47079;PMS5003;33067;49.296;14.470;2022-10-26T15:52:07;53;50;
47079;PMS5003;33067;49.296;14.470;2022-10-26T15:54:31;60;55;
47079;PMS5003;33067;49.296;14.470;2022-10-26T15:56:57;60;57;
47079;PMS5003;33067;49.296;14.470;2022-10-26T15:59:23;68;65;
47079;PMS5003;33067;49.296;14.470;2022-10-26T16:01:48;66;61;
47079;PMS5003;33067;49.296;14.470;2022-10-26T16:04:14;69;62;
47079;PMS5003;33067;49.296;14.470;2022-10-26T16:06:39;60;59;
47079;PMS5003;33067;49.296;14.470;2022-10-26T16:09:06;51;45;
47079;PMS5003;33067;49.296;14.470;2022-10-26T16:11:30;38;38;
47079;PMS5003;33067;49.296;14.470;2022-10-26T16:13:55;43;42;
47079;PMS5003;33067;49.296;14.470;2022-10-26T16:16:21;51;47;
47079;PMS5003;33067;49.296;14.470;2022-10-26T16:18:46;47;45;
47079;PMS5003;33067;49.296;14.470;2022-10-26T16:21:11;31;30;
47079;PMS5003;33067;49.296;14.470;2022-10-26T16:23:37;48;45;
47079;PMS5003;33067;49.296;14.470;2022-10-26T16:26:02;42;40;
47079;PMS5003;33067;49.296;14.470;2022-10-26T16:28:28;73;67;
47079;PMS5003;33067;49.296;14.470;2022-10-26T16:30:57;47;43;
47079;PMS5003;33067;49.296;14.470;2022-10-26T16:33:18;50;46;